createdAt,value
2016-11-08T00:00:09.718Z,0
2016-11-08T00:01:09.711Z,0
2016-11-08T00:02:09.410Z,0
2016-11-08T00:03:09.429Z,0
2016-11-08T00:04:09.458Z,0
2016-11-08T00:05:09.141Z,0
2016-11-08T00:06:09.788Z,0
2016-11-08T00:07:09.165Z,0
2016-11-08T00:08:09.185Z,0
2016-11-08T00:09:09.510Z,0
2016-11-08T00:10:09.846Z,0
2016-11-08T00:11:09.537Z,0
2016-11-08T00:12:09.239Z,0
2016-11-08T00:13:09.573Z,0
2016-11-08T00:14:09.582Z,0
2016-11-08T00:15:09.593Z,0
2016-11-08T00:16:09.608Z,0
2016-11-08T00:17:09.950Z,0
2016-11-08T00:18:09.322Z,0
2016-11-08T00:19:09.969Z,0
2016-11-08T00:20:09.669Z,0
2016-11-08T00:21:09.384Z,0
2016-11-08T00:22:09.710Z,0
2016-11-08T00:23:10.056Z,0
2016-11-08T00:24:10.369Z,0
2016-11-08T00:25:09.420Z,0
2016-11-08T00:26:10.072Z,0
2016-11-08T00:27:10.395Z,0
2016-11-08T00:28:10.528Z,0
2016-11-08T00:29:09.799Z,0
2016-11-08T00:30:10.124Z,0
2016-11-08T00:31:10.143Z,0
2016-11-08T00:32:10.173Z,0
2016-11-08T00:33:10.482Z,0
2016-11-08T00:34:09.889Z,0
2016-11-08T00:35:10.198Z,0
2016-11-08T00:36:09.893Z,0
2016-11-08T00:37:09.912Z,0
2016-11-08T00:38:09.629Z,0
2016-11-08T00:39:10.255Z,0
2016-11-08T00:40:09.953Z,0
2016-11-08T00:41:10.014Z,0
2016-11-08T00:42:10.323Z,0
2016-11-08T00:43:09.997Z,0
2016-11-08T00:44:10.007Z,0
2016-11-08T00:45:10.024Z,0
2016-11-08T00:46:10.045Z,0
2016-11-08T00:47:10.374Z,0
2016-11-08T00:48:10.079Z,0
2016-11-08T00:49:10.077Z,0
2016-11-08T00:50:09.799Z,0
2016-11-08T00:51:10.739Z,0
2016-11-08T00:52:10.439Z,0
2016-11-08T00:53:10.170Z,0
2016-11-08T00:54:10.152Z,0
2016-11-08T00:55:10.478Z,0
2016-11-08T00:56:10.492Z,0
2016-11-08T00:57:10.517Z,0
2016-11-08T00:58:10.539Z,0
2016-11-08T00:59:10.223Z,0
2016-11-08T01:00:10.555Z,0
2016-11-08T01:01:10.321Z,0
2016-11-08T01:02:10.897Z,0
2016-11-08T01:03:10.300Z,0
2016-11-08T01:04:10.297Z,0
2016-11-08T01:05:10.305Z,0
2016-11-08T01:06:10.644Z,0
2016-11-08T01:07:10.354Z,0
2016-11-08T01:08:10.035Z,0
2016-11-08T01:09:10.680Z,0
2016-11-08T01:10:10.376Z,0
2016-11-08T01:11:10.714Z,0
2016-11-08T01:12:10.420Z,0
2016-11-08T01:13:10.741Z,0
2016-11-08T01:14:10.749Z,0
2016-11-08T01:15:10.447Z,0
2016-11-08T01:16:10.473Z,0
2016-11-08T01:17:10.532Z,0
2016-11-08T01:18:10.174Z,0
2016-11-08T01:19:10.524Z,0
2016-11-08T01:20:10.532Z,0
2016-11-08T01:21:10.227Z,0
2016-11-08T01:22:10.247Z,0
2016-11-08T01:23:10.568Z,0
2016-11-08T01:24:10.577Z,0
2016-11-08T01:25:11.227Z,0
2016-11-08T01:26:10.609Z,0
2016-11-08T01:27:10.616Z,0
2016-11-08T01:28:10.954Z,0
2016-11-08T01:29:10.649Z,0
2016-11-08T01:30:10.663Z,0
2016-11-08T01:31:11.306Z,0
2016-11-08T01:32:10.710Z,0
2016-11-08T01:33:10.709Z,0
2016-11-08T01:34:11.074Z,0
2016-11-08T01:35:11.373Z,0
2016-11-08T01:36:11.069Z,0
2016-11-08T01:37:10.469Z,0
2016-11-08T01:38:11.101Z,0
2016-11-08T01:39:10.798Z,0
2016-11-08T01:40:11.122Z,0
2016-11-08T01:41:11.139Z,0
2016-11-08T01:42:11.155Z,0
2016-11-08T01:43:11.479Z,0
2016-11-08T01:44:11.184Z,0
2016-11-08T01:45:10.883Z,0
2016-11-08T01:46:10.900Z,0
2016-11-08T01:47:10.910Z,0
2016-11-08T01:48:10.935Z,0
2016-11-08T01:49:10.940Z,0
2016-11-08T01:50:11.270Z,0
2016-11-08T01:51:10.962Z,0
2016-11-08T01:52:10.981Z,0
2016-11-08T01:53:10.996Z,0
2016-11-08T01:54:11.324Z,0
2016-11-08T01:55:11.336Z,0
2016-11-08T01:56:11.070Z,0
2016-11-08T01:57:10.740Z,0
2016-11-08T01:58:11.383Z,0
2016-11-08T01:59:11.405Z,0
2016-11-08T02:00:11.725Z,0
2016-11-08T02:01:11.145Z,0
2016-11-08T02:02:11.141Z,0
2016-11-08T02:03:11.159Z,0
2016-11-08T02:04:11.170Z,0
2016-11-08T02:05:11.491Z,0
2016-11-08T02:06:11.185Z,0
2016-11-08T02:07:11.513Z,0
2016-11-08T02:08:10.898Z,0
2016-11-08T02:09:11.226Z,0
2016-11-08T02:10:11.558Z,0
2016-11-08T02:11:11.252Z,0
2016-11-08T02:12:11.582Z,0
2016-11-08T02:13:11.281Z,0
2016-11-08T02:14:10.982Z,0
2016-11-08T02:15:11.940Z,0
2016-11-08T02:16:11.651Z,0
2016-11-08T02:17:11.030Z,0
2016-11-08T02:18:11.987Z,0
2016-11-08T02:19:11.367Z,0
2016-11-08T02:20:12.015Z,0
2016-11-08T02:21:11.708Z,0
2016-11-08T02:22:11.093Z,0
2016-11-08T02:23:11.425Z,0
2016-11-08T02:24:11.441Z,0
2016-11-08T02:25:11.773Z,0
2016-11-08T02:26:11.148Z,0
2016-11-08T02:27:11.166Z,0
2016-11-08T02:28:12.169Z,0
2016-11-08T02:29:11.511Z,0
2016-11-08T02:30:11.533Z,0
2016-11-08T02:31:11.543Z,0
2016-11-08T02:32:12.199Z,0
2016-11-08T02:33:11.887Z,0
2016-11-08T02:34:11.909Z,0
2016-11-08T02:35:11.597Z,0
2016-11-08T02:36:11.294Z,0
2016-11-08T02:37:11.663Z,0
2016-11-08T02:38:11.651Z,0
2016-11-08T02:39:11.338Z,0
2016-11-08T02:40:11.695Z,0
2016-11-08T02:41:11.685Z,0
2016-11-08T02:42:11.384Z,0
2016-11-08T02:43:11.729Z,0
2016-11-08T02:44:11.726Z,0
2016-11-08T02:45:11.741Z,0
2016-11-08T02:46:12.389Z,0
2016-11-08T02:47:11.766Z,0
2016-11-08T02:48:11.781Z,0
2016-11-08T02:49:12.149Z,0
2016-11-08T02:50:11.810Z,0
2016-11-08T02:51:12.141Z,0
2016-11-08T02:52:11.534Z,0
2016-11-08T02:53:11.542Z,0
2016-11-08T02:54:11.871Z,0
2016-11-08T02:55:12.520Z,0
2016-11-08T02:56:12.225Z,0
2016-11-08T02:57:11.907Z,0
2016-11-08T02:58:12.242Z,0
2016-11-08T02:59:12.257Z,0
2016-11-08T03:00:11.955Z,0
2016-11-08T03:01:11.665Z,0
2016-11-08T03:02:12.308Z,0
2016-11-08T03:03:12.317Z,0
2016-11-08T03:04:12.331Z,0
2016-11-08T03:05:12.047Z,0
2016-11-08T03:06:11.754Z,0
2016-11-08T03:07:12.374Z,0
2016-11-08T03:08:12.075Z,0
2016-11-08T03:09:12.715Z,0
2016-11-08T03:10:12.104Z,0
2016-11-08T03:11:12.117Z,0
2016-11-08T03:12:12.448Z,0
2016-11-08T03:13:12.148Z,0
2016-11-08T03:14:11.839Z,0
2016-11-08T03:15:11.857Z,0
2016-11-08T03:16:12.190Z,0
2016-11-08T03:17:12.519Z,0
2016-11-08T03:18:12.220Z,0
2016-11-08T03:19:12.543Z,0
2016-11-08T03:20:12.562Z,0
2016-11-08T03:21:12.578Z,0
2016-11-08T03:22:12.268Z,0
2016-11-08T03:23:12.603Z,0
2016-11-08T03:24:12.300Z,0
2016-11-08T03:25:12.318Z,0
2016-11-08T03:26:12.330Z,0
2016-11-08T03:27:12.028Z,0
2016-11-08T03:28:12.704Z,0
2016-11-08T03:29:12.055Z,0
2016-11-08T03:30:12.719Z,0
2016-11-08T03:31:12.402Z,0
2016-11-08T03:32:12.421Z,0
2016-11-08T03:33:12.454Z,0
2016-11-08T03:34:13.079Z,0
2016-11-08T03:35:12.777Z,0
2016-11-08T03:36:12.789Z,0
2016-11-08T03:37:12.189Z,0
2016-11-08T03:38:12.816Z,0
2016-11-08T03:39:12.217Z,0
2016-11-08T03:40:12.213Z,0
2016-11-08T03:41:12.547Z,0
2016-11-08T03:42:12.249Z,0
2016-11-08T03:43:12.896Z,0
2016-11-08T03:44:12.583Z,0
2016-11-08T03:45:12.603Z,0
2016-11-08T03:46:12.299Z,0
2016-11-08T03:47:12.945Z,0
2016-11-08T03:48:12.649Z,0
2016-11-08T03:49:12.344Z,0
2016-11-08T03:50:12.703Z,0
2016-11-08T03:51:12.690Z,0
2016-11-08T03:52:12.704Z,0
2016-11-08T03:53:12.721Z,0
2016-11-08T03:54:13.045Z,0
2016-11-08T03:55:12.743Z,0
2016-11-08T03:56:13.081Z,0
2016-11-08T03:57:13.093Z,0
2016-11-08T03:58:13.100Z,0
2016-11-08T03:59:13.131Z,0
2016-11-08T04:00:13.133Z,0
2016-11-08T04:01:13.176Z,0
2016-11-08T04:02:13.176Z,0
2016-11-08T04:03:12.871Z,0
2016-11-08T04:04:12.891Z,0
2016-11-08T04:05:12.884Z,0
2016-11-08T04:06:13.217Z,0
2016-11-08T04:07:12.597Z,0
2016-11-08T04:08:12.646Z,0
2016-11-08T04:09:12.951Z,0
2016-11-08T04:10:12.959Z,0
2016-11-08T04:11:13.285Z,0
2016-11-08T04:12:12.988Z,0
2016-11-08T04:13:12.692Z,0
2016-11-08T04:14:13.013Z,0
2016-11-08T04:15:13.026Z,0
2016-11-08T04:16:13.043Z,0
2016-11-08T04:17:13.372Z,0
2016-11-08T04:18:13.091Z,0
2016-11-08T04:19:13.087Z,0
2016-11-08T04:20:13.092Z,0
2016-11-08T04:21:13.111Z,0
2016-11-08T04:22:13.127Z,0
2016-11-08T04:23:13.452Z,0
2016-11-08T04:24:13.470Z,0
2016-11-08T04:25:13.164Z,0
2016-11-08T04:26:13.190Z,0
2016-11-08T04:27:13.508Z,0
2016-11-08T04:28:13.221Z,0
2016-11-08T04:29:13.552Z,0
2016-11-08T04:30:13.238Z,0
2016-11-08T04:31:13.562Z,0
2016-11-08T04:32:13.599Z,0
2016-11-08T04:33:13.597Z,0
2016-11-08T04:34:13.927Z,0
2016-11-08T04:35:13.934Z,0
2016-11-08T04:36:12.996Z,0
2016-11-08T04:37:13.654Z,0
2016-11-08T04:38:13.661Z,0
2016-11-08T04:39:13.053Z,0
2016-11-08T04:40:13.689Z,0
2016-11-08T04:41:13.068Z,0
2016-11-08T04:42:13.719Z,0
2016-11-08T04:43:13.427Z,0
2016-11-08T04:44:13.746Z,0
2016-11-08T04:45:13.128Z,0
2016-11-08T04:46:13.153Z,0
2016-11-08T04:47:13.786Z,0
2016-11-08T04:48:13.494Z,0
2016-11-08T04:49:13.818Z,0
2016-11-08T04:50:13.512Z,0
2016-11-08T04:51:13.209Z,0
2016-11-08T04:52:13.866Z,0
2016-11-08T04:53:13.239Z,0
2016-11-08T04:54:13.882Z,0
2016-11-08T04:55:13.262Z,0
2016-11-08T04:56:13.613Z,0
2016-11-08T04:57:13.303Z,0
2016-11-08T04:58:13.936Z,0
2016-11-08T04:59:14.272Z,0
2016-11-08T05:00:13.647Z,0
2016-11-08T05:01:13.999Z,0
2016-11-08T05:02:13.679Z,0
2016-11-08T05:03:13.722Z,0
2016-11-08T05:04:14.018Z,0
2016-11-08T05:05:14.032Z,0
2016-11-08T05:06:13.730Z,0
2016-11-08T05:07:13.748Z,0
2016-11-08T05:08:13.442Z,0
2016-11-08T05:09:13.775Z,0
2016-11-08T05:10:13.823Z,0
2016-11-08T05:11:14.442Z,0
2016-11-08T05:12:14.128Z,0
2016-11-08T05:13:14.462Z,0
2016-11-08T05:14:13.537Z,0
2016-11-08T05:15:14.497Z,0
2016-11-08T05:16:13.548Z,0
2016-11-08T05:17:13.567Z,0
2016-11-08T05:18:13.894Z,0
2016-11-08T05:19:13.918Z,0
2016-11-08T05:20:13.920Z,0
2016-11-08T05:21:13.628Z,0
2016-11-08T05:22:13.952Z,0
2016-11-08T05:23:14.294Z,0
2016-11-08T05:24:14.295Z,0
2016-11-08T05:25:14.307Z,0
2016-11-08T05:26:14.321Z,0
2016-11-08T05:27:14.337Z,0
2016-11-08T05:28:14.036Z,0
2016-11-08T05:29:14.363Z,0
2016-11-08T05:30:14.383Z,0
2016-11-08T05:31:13.755Z,0
2016-11-08T05:32:14.404Z,0
2016-11-08T05:33:14.101Z,0
2016-11-08T05:34:13.805Z,0
2016-11-08T05:35:14.131Z,0
2016-11-08T05:36:14.459Z,0
2016-11-08T05:37:14.169Z,0
2016-11-08T05:38:14.484Z,0
2016-11-08T05:39:14.186Z,0
2016-11-08T05:40:14.536Z,0
2016-11-08T05:41:14.236Z,0
2016-11-08T05:42:14.228Z,0
2016-11-08T05:43:14.556Z,0
2016-11-08T05:44:14.570Z,0
2016-11-08T05:45:14.583Z,0
2016-11-08T05:46:14.284Z,0
2016-11-08T05:47:14.630Z,0
2016-11-08T05:48:14.650Z,0
2016-11-08T05:49:14.325Z,0
2016-11-08T05:50:14.970Z,0
2016-11-08T05:51:14.356Z,0
2016-11-08T05:52:14.387Z,0
2016-11-08T05:53:14.381Z,0
2016-11-08T05:54:14.395Z,0
2016-11-08T05:55:15.035Z,0
2016-11-08T05:56:14.740Z,4
2016-11-08T05:57:14.124Z,4
2016-11-08T05:58:14.452Z,4
2016-11-08T05:59:14.828Z,4
2016-11-08T06:00:14.475Z,0
2016-11-08T06:01:14.798Z,0
2016-11-08T06:02:15.141Z,0
2016-11-08T06:03:14.516Z,4
2016-11-08T06:04:14.246Z,4
2016-11-08T06:05:14.232Z,4
2016-11-08T06:06:14.576Z,4
2016-11-08T06:07:14.570Z,4
2016-11-08T06:08:15.220Z,4
2016-11-08T06:09:14.940Z,4
2016-11-08T06:10:14.926Z,4
2016-11-08T06:11:14.314Z,4
2016-11-08T06:12:15.321Z,8
2016-11-08T06:13:14.651Z,4
2016-11-08T06:14:14.985Z,4
2016-11-08T06:15:14.362Z,4
2016-11-08T06:16:15.017Z,8
2016-11-08T06:17:15.346Z,8
2016-11-08T06:18:15.034Z,4
2016-11-08T06:19:14.741Z,8
2016-11-08T06:20:14.747Z,12
2016-11-08T06:21:15.081Z,8
2016-11-08T06:22:14.776Z,12
2016-11-08T06:23:15.105Z,8
2016-11-08T06:24:15.437Z,8
2016-11-08T06:25:14.814Z,12
2016-11-08T06:26:15.144Z,12
2016-11-08T06:27:15.162Z,12
2016-11-08T06:28:14.547Z,12
2016-11-08T06:29:15.187Z,16
2016-11-08T06:30:14.886Z,16
2016-11-08T06:31:15.247Z,16
2016-11-08T06:32:14.611Z,16
2016-11-08T06:33:14.625Z,20
2016-11-08T06:34:15.256Z,20
2016-11-08T06:35:15.204Z,24
2016-11-08T06:36:14.967Z,28
2016-11-08T06:37:14.981Z,24
2016-11-08T06:38:14.994Z,24
2016-11-08T06:39:15.323Z,28
2016-11-08T06:40:15.030Z,32
2016-11-08T06:41:15.372Z,36
2016-11-08T06:42:15.368Z,36
2016-11-08T06:43:29.637Z,40
2016-11-08T06:44:15.076Z,40
2016-11-08T06:45:15.767Z,44
2016-11-08T06:46:15.429Z,44
2016-11-08T06:47:14.814Z,44
2016-11-08T06:48:14.833Z,48
2016-11-08T06:49:15.465Z,48
2016-11-08T06:50:14.845Z,48
2016-11-08T06:51:15.500Z,52
2016-11-08T06:52:15.181Z,56
2016-11-08T06:53:15.535Z,52
2016-11-08T06:54:15.527Z,60
2016-11-08T06:55:15.232Z,56
2016-11-08T06:56:15.897Z,56
2016-11-08T06:57:15.252Z,56
2016-11-08T06:58:15.584Z,52
2016-11-08T06:59:15.602Z,56
2016-11-08T07:00:15.305Z,60
2016-11-08T07:01:14.994Z,64
2016-11-08T07:02:15.032Z,68
2016-11-08T07:03:15.653Z,72
2016-11-08T07:04:15.983Z,76
2016-11-08T07:05:15.996Z,84
2016-11-08T07:06:15.066Z,84
2016-11-08T07:07:15.399Z,88
2016-11-08T07:08:15.411Z,88
2016-11-08T07:09:16.085Z,88
2016-11-08T07:10:15.770Z,88
2016-11-08T07:11:15.465Z,92
2016-11-08T07:12:15.148Z,88
2016-11-08T07:13:15.479Z,92
2016-11-08T07:14:15.805Z,100
2016-11-08T07:15:15.509Z,100
2016-11-08T07:16:15.552Z,108
2016-11-08T07:17:15.242Z,112
2016-11-08T07:18:15.549Z,120
2016-11-08T07:19:15.571Z,128
2016-11-08T07:20:15.580Z,148
2016-11-08T07:21:15.589Z,164
2016-11-08T07:22:15.615Z,180
2016-11-08T07:23:15.933Z,204
2016-11-08T07:24:15.637Z,232
2016-11-08T07:25:15.646Z,268
2016-11-08T07:26:15.979Z,316
2016-11-08T07:27:16.313Z,376
2016-11-08T07:28:16.317Z,432
2016-11-08T07:29:15.700Z,456
2016-11-08T07:30:15.714Z,460
2016-11-08T07:31:15.734Z,484
2016-11-08T07:32:16.063Z,528
2016-11-08T07:33:16.076Z,536
2016-11-08T07:34:16.091Z,572
2016-11-08T07:35:16.134Z,524
2016-11-08T07:36:15.811Z,484
2016-11-08T07:37:16.129Z,340
2016-11-08T07:38:15.831Z,288
2016-11-08T07:39:15.847Z,296
2016-11-08T07:40:15.873Z,312
2016-11-08T07:41:16.197Z,316
2016-11-08T07:42:16.517Z,328
2016-11-08T07:43:15.590Z,352
2016-11-08T07:44:16.232Z,376
2016-11-08T07:45:15.931Z,384
2016-11-08T07:46:15.947Z,400
2016-11-08T07:47:16.276Z,412
2016-11-08T07:48:15.660Z,404
2016-11-08T07:49:15.985Z,400
2016-11-08T07:50:16.355Z,400
2016-11-08T07:51:16.654Z,404
2016-11-08T07:52:16.349Z,448
2016-11-08T07:53:16.052Z,492
2016-11-08T07:54:16.060Z,536
2016-11-08T07:55:16.072Z,616
2016-11-08T07:56:16.114Z,652
2016-11-08T07:57:16.105Z,800
2016-11-08T07:58:16.167Z,872
2016-11-08T07:59:15.825Z,972
2016-11-08T08:00:16.148Z,1028
2016-11-08T08:01:16.496Z,1184
2016-11-08T08:02:16.183Z,1264
2016-11-08T08:03:16.551Z,1284
2016-11-08T08:04:16.213Z,1344
2016-11-08T08:05:16.233Z,1536
2016-11-08T08:06:15.930Z,1964
2016-11-08T08:07:16.253Z,2516
2016-11-08T08:08:16.593Z,3048
2016-11-08T08:09:16.284Z,2392
2016-11-08T08:10:16.617Z,1856
2016-11-08T08:11:16.314Z,1932
2016-11-08T08:12:16.655Z,2028
2016-11-08T08:13:16.348Z,2200
2016-11-08T08:14:16.987Z,2000
2016-11-08T08:15:16.373Z,1536
2016-11-08T08:16:16.392Z,1316
2016-11-08T08:17:17.039Z,1224
2016-11-08T08:18:16.753Z,1196
2016-11-08T08:19:17.093Z,1144
2016-11-08T08:20:16.136Z,1304
2016-11-08T08:21:16.465Z,1280
2016-11-08T08:22:16.792Z,1072
2016-11-08T08:23:16.814Z,936
2016-11-08T08:24:16.834Z,836
2016-11-08T08:25:16.842Z,948
2016-11-08T08:26:16.869Z,1096
2016-11-08T08:27:16.910Z,880
2016-11-08T08:28:16.259Z,776
2016-11-08T08:29:17.221Z,712
2016-11-08T08:30:16.938Z,708
2016-11-08T08:31:16.619Z,684
2016-11-08T08:32:16.952Z,580
2016-11-08T08:33:16.649Z,612
2016-11-08T08:34:16.393Z,668
2016-11-08T08:35:16.691Z,732
2016-11-08T08:36:16.705Z,764
2016-11-08T08:37:16.409Z,1596
2016-11-08T08:38:17.052Z,796
2016-11-08T08:39:16.746Z,960
2016-11-08T08:40:17.395Z,1224
2016-11-08T08:41:16.465Z,2056
2016-11-08T08:42:16.795Z,1436
2016-11-08T08:43:17.128Z,3132
2016-11-08T08:44:16.825Z,4576
2016-11-08T08:45:16.840Z,3648
2016-11-08T08:46:16.865Z,2280
2016-11-08T08:47:16.875Z,1548
2016-11-08T08:48:16.574Z,1832
2016-11-08T08:49:16.594Z,2268
2016-11-08T08:50:16.922Z,2040
2016-11-08T08:51:17.256Z,2412
2016-11-08T08:52:17.278Z,2444
2016-11-08T08:53:18.015Z,1652
2016-11-08T08:54:17.616Z,1432
2016-11-08T08:55:16.999Z,1964
2016-11-08T08:56:17.029Z,984
2016-11-08T08:57:17.353Z,1488
2016-11-08T08:58:17.369Z,1392
2016-11-08T08:59:17.067Z,1188
2016-11-08T09:00:16.770Z,1160
2016-11-08T09:01:17.442Z,1096
2016-11-08T09:02:17.438Z,1488
2016-11-08T09:03:17.454Z,1816
2016-11-08T09:04:17.154Z,1512
2016-11-08T09:05:17.486Z,1756
2016-11-08T09:06:16.889Z,1976
2016-11-08T09:07:17.837Z,1736
2016-11-08T09:08:16.905Z,1324
2016-11-08T09:09:17.236Z,788
2016-11-08T09:10:17.252Z,576
2016-11-08T09:11:17.585Z,476
2016-11-08T09:12:16.976Z,432
2016-11-08T09:13:16.988Z,396
2016-11-08T09:14:17.008Z,356
2016-11-08T09:15:17.051Z,340
2016-11-08T09:16:17.675Z,332
2016-11-08T09:17:17.371Z,332
2016-11-08T09:18:17.701Z,340
2016-11-08T09:19:17.406Z,320
2016-11-08T09:20:17.423Z,336
2016-11-08T09:21:17.756Z,408
2016-11-08T09:22:17.140Z,500
2016-11-08T09:23:17.501Z,428
2016-11-08T09:24:17.495Z,444
2016-11-08T09:25:17.820Z,492
2016-11-08T09:26:17.536Z,524
2016-11-08T09:27:18.165Z,512
2016-11-08T09:28:17.555Z,872
2016-11-08T09:29:17.260Z,1568
2016-11-08T09:30:17.948Z,2168
2016-11-08T09:31:17.619Z,2156
2016-11-08T09:32:17.307Z,2192
2016-11-08T09:33:17.338Z,2108
2016-11-08T09:34:17.385Z,2120
2016-11-08T09:35:17.664Z,2080
2016-11-08T09:36:17.379Z,1804
2016-11-08T09:37:18.013Z,1216
2016-11-08T09:38:17.719Z,1160
2016-11-08T09:39:17.464Z,2188
2016-11-08T09:40:17.747Z,1872
2016-11-08T09:41:17.768Z,2364
2016-11-08T09:42:18.104Z,2328
2016-11-08T09:43:17.801Z,988
2016-11-08T09:44:17.826Z,896
2016-11-08T09:45:18.145Z,1948
2016-11-08T09:46:17.535Z,1048
2016-11-08T09:47:17.873Z,892
2016-11-08T09:48:18.512Z,1240
2016-11-08T09:49:17.589Z,952
2016-11-08T09:50:17.922Z,1728
2016-11-08T09:51:17.620Z,856
2016-11-08T09:52:17.961Z,696
2016-11-08T09:53:17.977Z,612
2016-11-08T09:54:17.674Z,604
2016-11-08T09:55:17.703Z,612
2016-11-08T09:56:18.097Z,660
2016-11-08T09:57:18.041Z,1408
2016-11-08T09:58:17.744Z,716
2016-11-08T09:59:18.092Z,1224
2016-11-08T10:00:18.413Z,900
2016-11-08T10:01:18.183Z,868
2016-11-08T10:02:17.812Z,1324
2016-11-08T10:03:18.789Z,880
2016-11-08T10:04:18.506Z,968
2016-11-08T10:05:18.492Z,2256
2016-11-08T10:06:18.505Z,3056
2016-11-08T10:07:18.541Z,2776
2016-11-08T10:08:17.919Z,1936
2016-11-08T10:09:18.593Z,2036
2016-11-08T10:10:18.282Z,2256
2016-11-08T10:11:18.605Z,816
2016-11-08T10:12:18.299Z,788
2016-11-08T10:13:18.004Z,780
2016-11-08T10:14:18.332Z,1380
2016-11-08T10:15:18.346Z,1536
2016-11-08T10:16:18.996Z,884
2016-11-08T10:17:18.069Z,616
2016-11-08T10:18:18.721Z,484
2016-11-08T10:19:18.419Z,460
2016-11-08T10:20:18.750Z,392
2016-11-08T10:21:18.497Z,412
2016-11-08T10:22:18.470Z,424
2016-11-08T10:23:18.488Z,408
2016-11-08T10:24:18.501Z,440
2016-11-08T10:25:19.205Z,504
2016-11-08T10:26:19.167Z,2528
2016-11-08T10:27:18.239Z,2360
2016-11-08T10:28:18.915Z,692
2016-11-08T10:29:18.585Z,664
2016-11-08T10:30:18.917Z,612
2016-11-08T10:31:19.026Z,848
2016-11-08T10:32:18.322Z,512
2016-11-08T10:33:19.285Z,460
2016-11-08T10:34:18.985Z,448
2016-11-08T10:35:18.380Z,536
2016-11-08T10:36:18.717Z,668
2016-11-08T10:37:18.407Z,496
2016-11-08T10:38:18.748Z,548
2016-11-08T10:39:19.404Z,448
2016-11-08T10:40:18.777Z,380
2016-11-08T10:41:19.101Z,372
2016-11-08T10:42:18.812Z,436
2016-11-08T10:43:19.155Z,480
2016-11-08T10:44:18.850Z,468
2016-11-08T10:45:19.175Z,416
2016-11-08T10:46:18.881Z,380
2016-11-08T10:47:19.225Z,352
2016-11-08T10:48:19.540Z,1892
2016-11-08T10:49:18.608Z,384
2016-11-08T10:50:19.593Z,396
2016-11-08T10:51:19.596Z,356
2016-11-08T10:52:18.975Z,396
2016-11-08T10:53:18.674Z,420
2016-11-08T10:54:19.007Z,1704
2016-11-08T10:55:19.023Z,1792
2016-11-08T10:56:19.674Z,1804
2016-11-08T10:57:19.370Z,1832
2016-11-08T10:58:19.389Z,1852
2016-11-08T10:59:19.410Z,1840
2016-11-08T11:00:19.425Z,1824
2016-11-08T11:01:19.125Z,1808
2016-11-08T11:02:19.138Z,1772
2016-11-08T11:03:18.844Z,1784
2016-11-08T11:04:19.495Z,1796
2016-11-08T11:05:18.877Z,1776
2016-11-08T11:06:18.896Z,1780
2016-11-08T11:07:19.546Z,932
2016-11-08T11:08:19.242Z,1708
2016-11-08T11:09:19.582Z,1716
2016-11-08T11:10:19.292Z,532
2016-11-08T11:11:19.303Z,1752
2016-11-08T11:12:19.316Z,1792
2016-11-08T11:13:19.980Z,1792
2016-11-08T11:14:19.355Z,840
2016-11-08T11:15:19.688Z,576
2016-11-08T11:16:19.398Z,548
2016-11-08T11:17:19.410Z,516
2016-11-08T11:18:19.735Z,516
2016-11-08T11:19:19.755Z,740
2016-11-08T11:20:19.455Z,464
2016-11-08T11:21:19.478Z,468
2016-11-08T11:22:19.818Z,484
2016-11-08T11:23:20.178Z,468
2016-11-08T11:24:19.536Z,468
2016-11-08T11:25:19.269Z,1584
2016-11-08T11:26:19.882Z,360
2016-11-08T11:27:19.274Z,304
2016-11-08T11:28:19.928Z,288
2016-11-08T11:29:19.959Z,284
2016-11-08T11:30:19.658Z,316
2016-11-08T11:31:19.373Z,332
2016-11-08T11:32:20.023Z,344
2016-11-08T11:33:19.690Z,348
2016-11-08T11:34:20.027Z,392
2016-11-08T11:35:20.046Z,428
2016-11-08T11:36:20.077Z,464
2016-11-08T11:37:20.076Z,444
2016-11-08T11:38:19.778Z,1572
2016-11-08T11:39:19.500Z,1624
2016-11-08T11:40:20.141Z,660
2016-11-08T11:41:19.843Z,464
2016-11-08T11:42:20.487Z,396
2016-11-08T11:43:19.548Z,356
2016-11-08T11:44:20.200Z,376
2016-11-08T11:45:20.534Z,340
2016-11-08T11:46:20.235Z,384
2016-11-08T11:47:19.621Z,580
2016-11-08T11:48:20.277Z,840
2016-11-08T11:49:19.968Z,804
2016-11-08T11:50:19.988Z,1520
2016-11-08T11:51:19.691Z,1500
2016-11-08T11:52:20.021Z,1492
2016-11-08T11:53:20.040Z,540
2016-11-08T11:54:20.062Z,1424
2016-11-08T11:55:20.704Z,420
2016-11-08T11:56:20.098Z,380
2016-11-08T11:57:20.744Z,356
2016-11-08T11:58:20.756Z,472
2016-11-08T11:59:20.777Z,1376
2016-11-08T12:00:20.164Z,1368
2016-11-08T12:02:20.199Z,1388
2016-11-08T12:03:19.940Z,1396
2016-11-08T12:04:20.234Z,484
2016-11-08T12:05:20.250Z,1332
2016-11-08T12:06:20.275Z,1384
2016-11-08T12:07:19.970Z,880
2016-11-08T12:08:20.304Z,1420
2016-11-08T12:09:20.330Z,1368
2016-11-08T12:10:20.025Z,1348
2016-11-08T12:11:20.357Z,1364
2016-11-08T12:12:20.067Z,1368
2016-11-08T12:13:20.707Z,1364
2016-11-08T12:14:20.761Z,1372
2016-11-08T12:15:21.058Z,1384
2016-11-08T12:16:20.773Z,1360
2016-11-08T12:17:20.782Z,1348
2016-11-08T12:18:20.167Z,1332
2016-11-08T12:19:20.819Z,1304
2016-11-08T12:20:20.518Z,1300
2016-11-08T12:21:21.170Z,1248
2016-11-08T12:22:20.243Z,604
2016-11-08T12:23:20.891Z,428
2016-11-08T12:24:20.609Z,312
2016-11-08T12:25:21.240Z,292
2016-11-08T12:26:20.941Z,292
2016-11-08T12:27:20.681Z,328
2016-11-08T12:28:20.683Z,376
2016-11-08T12:29:20.998Z,392
2016-11-08T12:30:21.018Z,1180
2016-11-08T12:31:20.425Z,596
2016-11-08T12:32:20.753Z,444
2016-11-08T12:33:21.067Z,444
2016-11-08T12:34:20.464Z,900
2016-11-08T12:35:20.475Z,488
2016-11-08T12:36:21.071Z,1136
2016-11-08T12:37:21.143Z,384
2016-11-08T12:38:20.850Z,404
2016-11-08T12:39:20.866Z,564
2016-11-08T12:40:20.904Z,764
2016-11-08T12:41:20.596Z,416
2016-11-08T12:42:20.919Z,568
2016-11-08T12:43:21.578Z,436
2016-11-08T12:44:21.281Z,388
2016-11-08T12:45:21.289Z,400
2016-11-08T12:46:20.707Z,1168
2016-11-08T12:47:21.349Z,1148
2016-11-08T12:48:20.725Z,628
2016-11-08T12:49:21.046Z,1092
2016-11-08T12:50:21.071Z,924
2016-11-08T12:51:20.769Z,1084
2016-11-08T12:52:20.786Z,1064
2016-11-08T12:53:20.835Z,1060
2016-11-08T12:54:21.453Z,1052
2016-11-08T12:55:21.479Z,1032
2016-11-08T12:56:21.199Z,924
2016-11-08T12:57:21.232Z,1028
2016-11-08T12:58:21.207Z,1064
2016-11-08T12:59:21.230Z,1064
2016-11-08T13:00:21.246Z,1044
2016-11-08T13:01:21.586Z,1016
2016-11-08T13:02:21.286Z,996
2016-11-08T13:03:36.193Z,984
2016-11-08T13:04:21.654Z,988
2016-11-08T13:05:21.344Z,968
2016-11-08T13:06:21.043Z,948
2016-11-08T13:07:22.009Z,928
2016-11-08T13:08:21.752Z,936
2016-11-08T13:09:21.412Z,932
2016-11-08T13:10:21.430Z,908
2016-11-08T13:11:21.453Z,912
2016-11-08T13:12:21.786Z,896
2016-11-08T13:13:21.211Z,832
2016-11-08T13:14:21.188Z,344
2016-11-08T13:15:21.524Z,700
2016-11-08T13:16:21.231Z,328
2016-11-08T13:17:21.874Z,320
2016-11-08T13:18:21.289Z,320
2016-11-08T13:19:21.599Z,316
2016-11-08T13:20:21.936Z,324
2016-11-08T13:21:21.951Z,324
2016-11-08T13:22:21.657Z,340
2016-11-08T13:23:21.672Z,348
2016-11-08T13:24:22.326Z,316
2016-11-08T13:25:21.702Z,304
2016-11-08T13:26:21.752Z,308
2016-11-08T13:27:22.057Z,304
2016-11-08T13:28:21.762Z,288
2016-11-08T13:29:22.095Z,280
2016-11-08T13:30:21.759Z,268
2016-11-08T13:31:22.443Z,280
2016-11-08T13:32:22.153Z,380
2016-11-08T13:33:22.481Z,376
2016-11-08T13:34:22.185Z,304
2016-11-08T13:35:21.893Z,296
2016-11-08T13:36:22.224Z,308
2016-11-08T13:37:22.239Z,396
2016-11-08T13:38:22.588Z,380
2016-11-08T13:39:21.650Z,724
2016-11-08T13:40:22.295Z,764
2016-11-08T13:41:21.995Z,792
2016-11-08T13:42:22.338Z,768
2016-11-08T13:43:22.347Z,724
2016-11-08T13:44:21.735Z,688
2016-11-08T13:45:22.393Z,648
2016-11-08T13:46:21.766Z,620
2016-11-08T13:47:22.733Z,616
2016-11-08T13:48:22.500Z,604
2016-11-08T13:49:22.146Z,600
2016-11-08T13:50:22.472Z,592
2016-11-08T13:51:22.484Z,584
2016-11-08T13:52:22.189Z,568
2016-11-08T13:53:22.217Z,572
2016-11-08T13:54:22.539Z,568
2016-11-08T13:55:22.245Z,508
2016-11-08T13:56:22.260Z,236
2016-11-08T13:57:21.959Z,220
2016-11-08T13:58:22.631Z,196
2016-11-08T13:59:22.626Z,188
2016-11-08T14:00:22.643Z,184
2016-11-08T14:01:22.720Z,184
2016-11-08T14:02:22.366Z,180
2016-11-08T14:03:22.071Z,176
2016-11-08T14:04:22.406Z,180
2016-11-08T14:05:22.106Z,184
2016-11-08T14:06:22.457Z,192
2016-11-08T14:07:22.769Z,200
2016-11-08T14:08:22.865Z,224
2016-11-08T14:09:23.123Z,224
2016-11-08T14:10:22.200Z,216